createdAt,value
2023-01-21T00:01:15.180Z,7.70
2023-01-21T00:03:43.019Z,9.50
2023-01-21T00:06:11.598Z,6.60
2023-01-21T00:08:39.389Z,6.30
2023-01-21T00:11:09.480Z,7.70
2023-01-21T00:13:37.767Z,3.60
2023-01-21T00:16:05.994Z,4.30
2023-01-21T00:18:34.374Z,5.00
2023-01-21T00:21:02.565Z,5.90
2023-01-21T00:23:30.246Z,6.60
2023-01-21T00:26:03.285Z,7.30
2023-01-21T00:28:33.218Z,12.00
2023-01-21T00:31:03.111Z,6.90
2023-01-21T00:33:32.523Z,7.50
2023-01-21T00:36:22.263Z,6.20
2023-01-21T00:38:50.023Z,4.20
2023-01-21T00:41:17.936Z,10.40
2023-01-21T00:43:45.620Z,8.00
2023-01-21T00:46:13.404Z,5.70
2023-01-21T00:48:41.108Z,5.90
2023-01-21T00:51:09.799Z,5.60
2023-01-21T00:53:39.257Z,3.00
2023-01-21T00:56:09.576Z,6.10
2023-01-21T00:58:37.873Z,7.60
2023-01-21T01:01:11.921Z,5.90
2023-01-21T01:03:40.946Z,5.60
2023-01-21T01:06:12.747Z,5.40
2023-01-21T01:08:40.636Z,7.80
2023-01-21T01:11:08.886Z,6.60
2023-01-21T01:13:37.409Z,8.40
2023-01-21T01:16:06.541Z,7.10
2023-01-21T01:18:36.123Z,5.10
2023-01-21T01:21:05.411Z,4.20
2023-01-21T01:23:33.389Z,6.30
2023-01-21T01:26:03.970Z,5.10
2023-01-21T01:28:32.751Z,5.00
2023-01-21T01:31:03.687Z,5.20
2023-01-21T01:33:31.484Z,6.60
2023-01-21T01:36:04.894Z,4.40
2023-01-21T01:38:34.799Z,5.80
2023-01-21T01:41:02.899Z,4.40
2023-01-21T01:43:58.000Z,3.90
2023-01-21T01:46:28.774Z,6.10
2023-01-21T01:49:02.793Z,4.80
2023-01-21T01:51:41.922Z,4.60
2023-01-21T01:54:11.162Z,3.30
2023-01-21T01:56:42.141Z,5.60
2023-01-21T01:59:10.110Z,2.60
2023-01-21T02:01:37.982Z,4.10
2023-01-21T02:04:10.194Z,6.40
2023-01-21T02:06:39.680Z,2.40
2023-01-21T02:09:07.529Z,4.90
2023-01-21T02:11:36.962Z,6.20
2023-01-21T02:14:05.655Z,4.80
2023-01-21T02:16:45.656Z,3.80
2023-01-21T02:19:50.616Z,6.10
2023-01-21T02:22:45.976Z,4.30
2023-01-21T02:25:43.280Z,3.70
2023-01-21T02:28:29.344Z,4.00
2023-01-21T02:31:06.813Z,3.80
2023-01-21T02:33:54.127Z,4.10
2023-01-21T02:36:41.859Z,3.90
2023-01-21T02:39:47.941Z,2.80
2023-01-21T02:42:36.966Z,3.20
2023-01-21T02:45:15.182Z,2.50
2023-01-21T02:48:05.889Z,2.10
2023-01-21T02:50:55.165Z,2.60
2023-01-21T02:53:34.327Z,2.70
2023-01-21T02:56:12.472Z,2.40
2023-01-21T02:58:47.511Z,2.30
2023-01-21T03:01:36.915Z,3.20
2023-01-21T03:04:24.940Z,3.50
2023-01-21T03:06:55.505Z,1.80
2023-01-21T03:09:29.527Z,2.90
2023-01-21T03:12:01.542Z,3.00
2023-01-21T03:14:50.240Z,2.40
2023-01-21T03:17:48.202Z,3.00
2023-01-21T03:20:47.846Z,3.60
2023-01-21T03:23:20.193Z,2.40
2023-01-21T03:25:50.434Z,3.00
2023-01-21T03:28:23.114Z,3.10
2023-01-21T03:30:56.845Z,2.60
2023-01-21T03:33:25.814Z,1.70
2023-01-21T03:35:55.955Z,3.00
2023-01-21T03:38:36.372Z,3.00
2023-01-21T03:41:24.179Z,2.00
2023-01-21T03:43:52.242Z,2.80
2023-01-21T03:46:26.177Z,2.00
2023-01-21T03:49:11.229Z,2.40
2023-01-21T03:51:50.023Z,2.60
2023-01-21T03:54:17.956Z,2.60
2023-01-21T03:56:45.634Z,2.70
2023-01-21T03:59:13.350Z,1.30
2023-01-21T04:01:41.772Z,2.40
2023-01-21T04:04:10.440Z,2.60
2023-01-21T04:06:38.201Z,2.50
2023-01-21T04:09:07.228Z,4.70
2023-01-21T04:11:34.958Z,2.90
2023-01-21T04:14:02.823Z,2.30
2023-01-21T04:16:30.715Z,2.00
2023-01-21T04:18:58.487Z,5.00
2023-01-21T04:21:26.331Z,2.40
2023-01-21T04:23:53.982Z,4.00
2023-01-21T04:26:21.856Z,2.60
2023-01-21T04:28:49.610Z,3.80
2023-01-21T04:31:17.358Z,3.20
2023-01-21T04:33:45.774Z,1.60
2023-01-21T04:36:13.663Z,2.00
2023-01-21T04:38:41.516Z,2.80
2023-01-21T04:41:09.179Z,2.10
2023-01-21T04:43:36.890Z,2.40
2023-01-21T04:46:05.071Z,3.40
2023-01-21T04:48:33.332Z,1.00
2023-01-21T04:51:01.211Z,2.40
2023-01-21T04:53:29.283Z,1.90
2023-01-21T04:55:57.072Z,1.10
2023-01-21T04:58:24.957Z,2.80
2023-01-21T05:00:53.858Z,1.40
2023-01-21T05:03:21.720Z,2.10
2023-01-21T05:05:49.378Z,1.30
2023-01-21T05:08:17.268Z,2.30
2023-01-21T05:10:44.999Z,1.40
2023-01-21T05:13:12.814Z,2.10
2023-01-21T05:15:40.539Z,1.90
2023-01-21T05:18:08.213Z,1.00
2023-01-21T05:20:35.903Z,1.20
2023-01-21T05:23:03.638Z,2.10
2023-01-21T05:25:31.336Z,1.60
2023-01-21T05:27:59.009Z,2.00
2023-01-21T05:30:26.812Z,1.90
2023-01-21T05:32:55.344Z,1.30
2023-01-21T05:35:24.334Z,0.80
2023-01-21T05:37:52.076Z,1.00
2023-01-21T05:40:20.156Z,0.90
2023-01-21T05:42:47.985Z,1.20
2023-01-21T05:45:15.800Z,0.50
2023-01-21T05:47:43.544Z,2.30
2023-01-21T05:50:12.187Z,1.00
2023-01-21T05:52:40.412Z,0.50
2023-01-21T05:55:08.311Z,1.20
2023-01-21T05:57:36.200Z,1.50
2023-01-21T06:00:05.181Z,1.50
2023-01-21T06:02:32.909Z,0.90
2023-01-21T06:05:00.675Z,0.90
2023-01-21T06:07:28.464Z,1.30
2023-01-21T06:09:56.164Z,0.70
2023-01-21T06:12:24.821Z,1.10
2023-01-21T06:14:52.766Z,0.50
2023-01-21T06:17:20.573Z,0.80
2023-01-21T06:19:48.385Z,1.50
2023-01-21T06:22:16.720Z,1.00
2023-01-21T06:24:45.021Z,0.90
2023-01-21T06:27:13.087Z,1.20
2023-01-21T06:29:40.724Z,0.50
2023-01-21T06:32:08.481Z,0.90
2023-01-21T06:34:36.254Z,1.60
2023-01-21T06:37:03.928Z,0.80
2023-01-21T06:39:31.659Z,1.80
2023-01-21T06:41:59.398Z,1.10
2023-01-21T06:44:27.098Z,0.90
2023-01-21T06:47:02.221Z,0.80
2023-01-21T06:49:29.946Z,1.60
2023-01-21T06:51:57.675Z,0.80
2023-01-21T06:54:25.463Z,1.50
2023-01-21T06:56:53.177Z,1.50
2023-01-21T06:59:20.866Z,1.20
2023-01-21T07:01:48.762Z,0.70
2023-01-21T07:04:16.860Z,0.80
2023-01-21T07:06:44.567Z,1.50
2023-01-21T07:09:12.629Z,0.40
2023-01-21T07:11:40.330Z,1.30
2023-01-21T07:14:08.077Z,0.70
2023-01-21T07:16:35.973Z,0.30
2023-01-21T07:19:04.171Z,0.90
2023-01-21T07:21:31.949Z,0.10
2023-01-21T07:24:00.652Z,0.30
2023-01-21T07:26:28.346Z,0.20
2023-01-21T07:28:56.181Z,0.30
2023-01-21T07:31:23.906Z,0.20
2023-01-21T07:33:51.982Z,0.00
2023-01-21T07:36:19.788Z,0.20
2023-01-21T07:38:47.493Z,0.10
2023-01-21T07:41:15.180Z,1.00
2023-01-21T07:43:42.902Z,0.50
2023-01-21T07:46:10.649Z,0.30
2023-01-21T07:48:38.298Z,1.30
2023-01-21T07:51:06.255Z,0.60
2023-01-21T07:53:34.146Z,0.40
2023-01-21T07:56:06.164Z,0.20
2023-01-21T07:58:34.083Z,0.30
2023-01-21T08:01:08.031Z,0.10
2023-01-21T08:03:37.295Z,0.70
2023-01-21T08:06:06.149Z,0.20
2023-01-21T08:08:34.470Z,1.30
2023-01-21T08:11:02.226Z,0.90
2023-01-21T08:13:29.939Z,1.70
2023-01-21T08:15:57.933Z,1.60
2023-01-21T08:18:25.771Z,3.40
2023-01-21T08:20:55.671Z,1.00
2023-01-21T08:25:51.565Z,1.00
2023-01-21T08:28:19.296Z,1.20
2023-01-21T08:30:47.609Z,1.20
2023-01-21T08:33:15.515Z,1.10
2023-01-21T08:35:43.227Z,1.50
2023-01-21T08:38:10.938Z,1.30
2023-01-21T08:40:38.696Z,2.20
2023-01-21T08:43:09.070Z,0.80
2023-01-21T08:45:36.755Z,1.20
2023-01-21T08:48:04.550Z,1.50
2023-01-21T08:50:32.216Z,1.10
2023-01-21T08:52:59.861Z,1.10
2023-01-21T08:55:27.582Z,0.90
2023-01-21T08:57:56.022Z,2.30
2023-01-21T09:00:24.908Z,0.80
2023-01-21T09:02:53.678Z,1.80
2023-01-21T09:05:21.668Z,1.30
2023-01-21T09:07:49.557Z,2.00
2023-01-21T09:10:38.510Z,0.70
2023-01-21T09:13:07.842Z,2.00
2023-01-21T09:15:40.636Z,1.10
2023-01-21T09:18:08.432Z,1.00
2023-01-21T09:20:36.387Z,1.20
2023-01-21T09:23:24.029Z,2.10
2023-01-21T09:25:53.359Z,2.30
2023-01-21T09:28:22.322Z,1.70
2023-01-21T09:30:50.052Z,2.00
2023-01-21T09:33:17.828Z,3.00
2023-01-21T09:35:45.596Z,3.80
2023-01-21T09:38:13.544Z,2.90
2023-01-21T09:40:45.311Z,1.40
2023-01-21T09:43:23.999Z,1.40
2023-01-21T09:45:54.324Z,2.40
2023-01-21T09:48:49.410Z,2.10
2023-01-21T09:51:24.499Z,2.10
2023-01-21T09:53:57.059Z,2.00
2023-01-21T09:56:56.567Z,1.00
2023-01-21T09:59:42.948Z,2.70
2023-01-21T10:02:26.183Z,2.20
2023-01-21T10:08:37.395Z,2.50
2023-01-21T10:11:18.810Z,3.80
2023-01-21T10:13:55.325Z,1.90
2023-01-21T10:16:32.175Z,1.90
2023-01-21T10:19:03.177Z,3.00
2023-01-21T10:21:53.845Z,1.30
2023-01-21T10:24:26.030Z,2.40
2023-01-21T10:26:54.181Z,3.00
2023-01-21T10:29:25.671Z,2.00
2023-01-21T10:31:59.586Z,2.00
2023-01-21T10:34:31.330Z,3.30
2023-01-21T10:37:12.819Z,2.50
2023-01-21T10:39:55.645Z,3.30
2023-01-21T10:42:44.122Z,3.20
2023-01-21T10:45:25.775Z,2.80
2023-01-21T10:48:30.898Z,2.20
2023-01-21T10:51:21.796Z,3.90
2023-01-21T10:54:09.652Z,4.90
2023-01-21T10:56:55.335Z,40.70
2023-01-21T10:59:27.016Z,92.90
2023-01-21T11:02:12.867Z,31.20
2023-01-21T11:04:41.149Z,37.80
2023-01-21T11:07:14.845Z,17.10
2023-01-21T11:09:46.110Z,8.30
2023-01-21T11:12:18.713Z,5.80
2023-01-21T11:15:00.962Z,5.80
2023-01-21T11:17:34.520Z,4.10
2023-01-21T11:20:26.095Z,7.90
2023-01-21T11:22:53.888Z,4.00
2023-01-21T11:25:41.560Z,10.10
2023-01-21T11:28:24.524Z,4.90
2023-01-21T11:31:14.785Z,12.80
2023-01-21T11:33:43.934Z,23.10
2023-01-21T11:36:17.417Z,57.60
2023-01-21T11:38:48.194Z,58.30
2023-01-21T11:41:21.296Z,74.10
2023-01-21T11:43:52.768Z,26.70
2023-01-21T11:46:28.904Z,10.20
2023-01-21T11:49:09.890Z,14.00
2023-01-21T11:51:39.722Z,49.30
2023-01-21T11:54:24.688Z,58.30
2023-01-21T11:56:58.216Z,25.90
2023-01-21T11:59:25.849Z,13.10
2023-01-21T12:01:59.850Z,11.40
2023-01-21T12:04:27.606Z,6.80
2023-01-21T12:07:00.337Z,5.00
2023-01-21T12:09:29.193Z,4.60
2023-01-21T12:12:27.554Z,6.00
2023-01-21T12:15:03.902Z,15.90
2023-01-21T12:17:41.586Z,7.10
2023-01-21T12:20:23.624Z,5.50
2023-01-21T12:23:09.905Z,4.90
2023-01-21T12:25:51.362Z,7.90
2023-01-21T12:28:46.813Z,25.20
2023-01-21T12:31:23.931Z,12.20
2023-01-21T12:33:55.182Z,13.60
2023-01-21T12:36:33.105Z,12.80
2023-01-21T12:39:14.188Z,7.60
2023-01-21T12:41:44.180Z,9.00
2023-01-21T12:44:27.708Z,6.40
2023-01-21T12:47:01.303Z,7.60
2023-01-21T12:50:15.030Z,39.50
2023-01-21T12:53:14.762Z,35.40
2023-01-21T12:56:00.663Z,10.50
2023-01-21T12:59:05.512Z,13.10
2023-01-21T13:01:55.840Z,14.10
2023-01-21T13:04:39.471Z,15.00
2023-01-21T13:07:20.620Z,9.00
2023-01-21T13:10:17.692Z,7.70
2023-01-21T13:12:51.913Z,7.60
2023-01-21T13:15:23.744Z,6.20
2023-01-21T13:17:57.270Z,8.90
2023-01-21T13:20:25.215Z,7.80
2023-01-21T13:22:58.826Z,11.00
2023-01-21T13:25:34.958Z,14.30
2023-01-21T13:28:06.334Z,13.50
2023-01-21T13:30:55.679Z,11.40
2023-01-21T13:33:29.213Z,12.00
2023-01-21T13:36:21.904Z,12.30
2023-01-21T13:39:10.025Z,12.70
2023-01-21T13:41:49.721Z,36.00
2023-01-21T13:44:33.596Z,73.10
2023-01-21T13:47:35.125Z,27.10
2023-01-21T13:50:17.382Z,16.80
2023-01-21T13:53:23.772Z,14.30
2023-01-21T13:56:12.484Z,8.80
2023-01-21T13:59:14.201Z,14.90
2023-01-21T14:01:55.745Z,9.90
2023-01-21T14:08:10.898Z,9.40
2023-01-21T14:10:53.979Z,10.30
2023-01-21T14:13:30.852Z,8.30
2023-01-21T14:16:13.853Z,10.30
2023-01-21T14:19:02.731Z,10.70
2023-01-21T14:21:55.223Z,11.70
2023-01-21T14:25:01.063Z,33.60
2023-01-21T14:28:00.203Z,36.40
2023-01-21T14:30:45.920Z,33.70
2023-01-21T14:33:29.391Z,20.40
2023-01-21T14:36:20.258Z,17.30
2023-01-21T14:39:19.683Z,14.00
2023-01-21T14:42:12.605Z,24.00
2023-01-21T14:45:01.247Z,22.50
2023-01-21T14:47:28.948Z,30.50
2023-01-21T14:49:59.128Z,42.60
2023-01-21T14:52:43.213Z,18.80
2023-01-21T14:55:30.539Z,21.40
2023-01-21T14:58:01.607Z,24.70
2023-01-21T15:00:32.414Z,24.60
2023-01-21T15:03:03.145Z,23.50
2023-01-21T15:05:38.173Z,27.30
2023-01-21T15:08:17.187Z,18.70
2023-01-21T15:10:52.503Z,29.90
2023-01-21T15:13:35.584Z,33.90
2023-01-21T15:16:12.892Z,27.20
2023-01-21T15:19:05.820Z,14.60
2023-01-21T15:21:41.030Z,15.70
2023-01-21T15:24:26.004Z,19.30
2023-01-21T15:27:12.629Z,21.80
2023-01-21T15:29:53.762Z,22.40
2023-01-21T15:32:38.535Z,17.50
2023-01-21T15:35:30.549Z,18.20
2023-01-21T15:38:12.607Z,25.40
2023-01-21T15:40:48.834Z,16.60
2023-01-21T15:43:21.554Z,16.10
2023-01-21T15:46:14.560Z,20.30
2023-01-21T15:49:11.601Z,10.30
2023-01-21T15:51:54.548Z,18.20
2023-01-21T15:54:28.013Z,18.40
2023-01-21T15:57:23.369Z,15.50
2023-01-21T16:00:09.618Z,13.70
2023-01-21T16:02:51.954Z,20.50
2023-01-21T16:06:01.346Z,17.70
2023-01-21T16:08:37.991Z,14.90
2023-01-21T16:11:19.189Z,18.40
2023-01-21T16:14:03.144Z,14.70
2023-01-21T16:16:49.662Z,18.70
2023-01-21T16:19:21.564Z,10.10
2023-01-21T16:21:53.630Z,17.20
2023-01-21T16:24:25.180Z,17.90
2023-01-21T16:26:52.891Z,19.50
2023-01-21T16:29:20.729Z,14.60
2023-01-21T16:32:00.001Z,17.10
2023-01-21T16:34:30.602Z,25.00
2023-01-21T16:36:58.430Z,19.60
2023-01-21T16:39:26.262Z,33.50
2023-01-21T16:42:02.380Z,26.20
2023-01-21T16:44:32.965Z,24.70
2023-01-21T16:47:01.508Z,33.10
2023-01-21T16:49:29.803Z,31.90
2023-01-21T16:52:00.691Z,30.90
2023-01-21T16:54:31.711Z,28.80
2023-01-21T16:57:20.299Z,30.40
2023-01-21T16:59:48.860Z,19.60
2023-01-21T17:02:28.149Z,19.40
2023-01-21T17:04:57.880Z,19.10
2023-01-21T17:07:25.681Z,32.00
2023-01-21T17:09:58.855Z,49.20
2023-01-21T17:12:29.525Z,54.10
2023-01-21T17:15:01.678Z,79.30
2023-01-21T17:17:37.260Z,78.20
2023-01-21T17:20:05.637Z,93.70
2023-01-21T17:22:35.384Z,53.80
2023-01-21T17:27:39.517Z,62.60
2023-01-21T17:30:33.189Z,57.00
2023-01-21T17:33:02.589Z,92.70
2023-01-21T17:35:32.900Z,117.60
2023-01-21T17:38:10.794Z,52.00
2023-01-21T17:40:45.721Z,76.40
2023-01-21T17:43:17.003Z,46.20
2023-01-21T17:45:47.229Z,41.40
2023-01-21T17:48:23.708Z,47.50
2023-01-21T17:50:52.621Z,47.30
2023-01-21T17:53:26.347Z,50.60
2023-01-21T17:56:07.264Z,66.90
2023-01-21T17:58:45.019Z,74.90
2023-01-21T18:01:13.876Z,64.30
2023-01-21T18:03:42.308Z,75.50
2023-01-21T18:06:17.439Z,79.40
2023-01-21T18:08:45.343Z,80.70
2023-01-21T18:11:17.693Z,82.40
2023-01-21T18:13:45.457Z,93.20
2023-01-21T18:16:13.842Z,49.60
2023-01-21T18:18:42.108Z,46.90
2023-01-21T18:21:19.974Z,42.50
2023-01-21T18:23:48.977Z,49.00
2023-01-21T18:26:26.555Z,46.00
2023-01-21T18:28:54.301Z,46.80
2023-01-21T18:31:23.208Z,45.20
2023-01-21T18:33:51.255Z,50.80
2023-01-21T18:36:18.967Z,37.70
2023-01-21T18:38:46.634Z,38.90
2023-01-21T18:41:14.414Z,48.30
2023-01-21T18:43:43.098Z,54.20
2023-01-21T18:46:13.586Z,25.80
2023-01-21T18:48:42.990Z,26.20
2023-01-21T18:51:12.662Z,29.10
2023-01-21T18:53:40.426Z,24.20
2023-01-21T18:56:13.720Z,23.50
2023-01-21T18:58:41.601Z,24.70
2023-01-21T19:01:21.893Z,26.30
2023-01-21T19:03:52.843Z,26.60
2023-01-21T19:06:22.252Z,28.20
2023-01-21T19:08:49.934Z,100.70
2023-01-21T19:11:18.070Z,106.40
2023-01-21T19:13:45.923Z,104.30
2023-01-21T19:16:18.816Z,102.20
2023-01-21T19:18:46.580Z,106.00
2023-01-21T19:21:14.406Z,139.60
2023-01-21T19:23:42.239Z,118.70
2023-01-21T19:26:13.039Z,70.40
2023-01-21T19:28:40.766Z,41.60
2023-01-21T19:31:08.604Z,44.00
2023-01-21T19:33:36.780Z,44.10
2023-01-21T19:36:12.246Z,45.50
2023-01-21T19:38:41.494Z,67.60
2023-01-21T19:41:10.890Z,39.90
2023-01-21T19:43:38.628Z,54.00
2023-01-21T19:46:11.280Z,34.10
2023-01-21T19:48:40.040Z,31.00
2023-01-21T19:51:08.283Z,24.50
2023-01-21T19:53:36.244Z,38.30
2023-01-21T19:56:05.718Z,32.80
2023-01-21T19:58:33.757Z,30.60
2023-01-21T20:01:01.671Z,30.30
2023-01-21T20:03:30.563Z,36.80
2023-01-21T20:06:01.620Z,31.70
2023-01-21T20:08:31.534Z,25.30
2023-01-21T20:11:00.193Z,23.90
2023-01-21T20:13:32.261Z,34.10
2023-01-21T20:16:03.757Z,25.20
2023-01-21T20:18:35.032Z,30.60
2023-01-21T20:21:02.806Z,32.90
2023-01-21T20:23:32.577Z,30.70
2023-01-21T20:28:34.062Z,20.30
2023-01-21T20:31:06.521Z,23.60
2023-01-21T20:33:35.933Z,28.30
2023-01-21T20:36:07.564Z,24.30
2023-01-21T20:38:37.415Z,15.10
2023-01-21T20:41:05.918Z,22.20
2023-01-21T20:43:35.194Z,26.60
2023-01-21T20:46:07.198Z,19.00
2023-01-21T20:48:38.928Z,33.00
2023-01-21T20:51:07.329Z,28.90
2023-01-21T20:53:35.941Z,21.70
2023-01-21T20:56:17.375Z,23.30
2023-01-21T20:58:47.704Z,28.10
2023-01-21T21:01:16.924Z,21.10
2023-01-21T21:03:45.162Z,23.20
2023-01-21T21:06:18.998Z,23.80
2023-01-21T21:08:47.846Z,21.80
2023-01-21T21:11:16.913Z,22.10
2023-01-21T21:13:48.235Z,19.60
2023-01-21T21:16:19.698Z,23.80
2023-01-21T21:18:48.285Z,23.40
2023-01-21T21:21:17.589Z,24.00
2023-01-21T21:23:48.429Z,25.10
2023-01-21T21:26:20.397Z,18.10
2023-01-21T21:28:49.023Z,19.10
2023-01-21T21:31:18.185Z,21.80
2023-01-21T21:33:46.255Z,24.80
2023-01-21T21:36:19.702Z,24.70
2023-01-21T21:38:48.856Z,20.60
2023-01-21T21:41:37.890Z,25.90
2023-01-21T21:44:06.917Z,20.30
2023-01-21T21:46:55.048Z,22.60
2023-01-21T21:49:23.327Z,15.20
2023-01-21T21:51:51.083Z,24.30
2023-01-21T21:54:18.831Z,33.80
2023-01-21T21:56:47.611Z,60.90
2023-01-21T21:59:15.409Z,29.50
2023-01-21T22:01:44.233Z,45.50
2023-01-21T22:04:12.257Z,50.10
2023-01-21T22:06:40.224Z,34.20
2023-01-21T22:09:08.474Z,35.50
2023-01-21T22:11:36.302Z,29.50
2023-01-21T22:14:04.505Z,27.20
2023-01-21T22:16:33.482Z,27.50
2023-01-21T22:19:01.878Z,26.50
2023-01-21T22:21:32.716Z,36.00
2023-01-21T22:24:02.028Z,35.20
2023-01-21T22:26:30.356Z,26.20
2023-01-21T22:28:58.612Z,29.10
2023-01-21T22:31:29.305Z,31.80
2023-01-21T22:33:59.184Z,35.50
2023-01-21T22:36:29.758Z,34.90
2023-01-21T22:38:58.111Z,29.50
2023-01-21T22:41:26.704Z,37.90
2023-01-21T22:43:54.618Z,41.00
2023-01-21T22:46:24.840Z,31.40
2023-01-21T22:48:55.970Z,32.60
2023-01-21T22:51:23.815Z,31.30
2023-01-21T22:53:52.670Z,31.30
2023-01-21T22:56:31.511Z,47.70
2023-01-21T22:59:08.009Z,36.80
2023-01-21T23:01:36.546Z,25.90
2023-01-21T23:04:04.569Z,32.00
2023-01-21T23:06:32.261Z,28.10
2023-01-21T23:09:00.666Z,32.90
2023-01-21T23:11:29.696Z,30.50
2023-01-21T23:13:57.457Z,19.10
2023-01-21T23:16:25.194Z,27.70
2023-01-21T23:18:53.016Z,26.00
2023-01-21T23:21:22.135Z,30.30
2023-01-21T23:23:50.330Z,33.20
2023-01-21T23:26:19.448Z,22.50
2023-01-21T23:28:47.518Z,26.40
2023-01-21T23:31:17.674Z,30.30
2023-01-21T23:33:53.115Z,28.40
2023-01-21T23:36:21.356Z,30.60
2023-01-21T23:38:49.112Z,22.50
2023-01-21T23:41:17.209Z,33.50
2023-01-21T23:43:44.899Z,17.90
2023-01-21T23:46:19.898Z,27.40
2023-01-21T23:48:48.006Z,23.40
2023-01-21T23:51:17.097Z,22.70
2023-01-21T23:53:48.187Z,19.50
2023-01-21T23:56:23.693Z,18.50
2023-01-21T23:58:51.727Z,21.70
